Terminal Aerodrome Forecast
Issued by NWS

Home | Current Version | Previous Version | Text Only | Print | Product List | Glossary On
Versions: 1 2 3 4 5 6 7 8 9 10 11 12 13 14 15 16 17 18 19
000
FTUS43 KPAH 230520
TAFCGI
TAF
KCGI 230520Z 2306/2406 21006KT P6SM BKN030
      TEMPO 2306/2310 SCT030
     FM231000 21003KT 3SM BR BKN020
     FM231500 19009KT P6SM BKN035
     FM240000 19010KT P6SM BKN050=

USA.gov is the U.S. government's official web portal to all federal, state and local government web resources and services.